sensor_id;sensor_type;location;lat;lon;timestamp;pressure;altitude;pressure_sealevel;temperature;humidity
77855;BME280;67046;50.088;14.336;2023-03-14T00:00:14;95915.78;;;11.94;68.54
77855;BME280;67046;50.088;14.336;2023-03-14T00:01:17;95914.98;;;11.91;68.82
77855;BME280;67046;50.088;14.336;2023-03-14T00:01:49;95915.81;;;11.87;68.74
77855;BME280;67046;50.088;14.336;2023-03-14T00:02:20;95918.48;;;11.86;68.76
77855;BME280;67046;50.088;14.336;2023-03-14T00:02:53;95918.13;;;11.84;68.95
77855;BME280;67046;50.088;14.336;2023-03-14T00:03:25;95921.05;;;11.84;69.16
77855;BME280;67046;50.088;14.336;2023-03-14T00:03:56;95921.11;;;11.83;68.85
77855;BME280;67046;50.088;14.336;2023-03-14T00:04:28;95914.20;;;11.81;68.88
77855;BME280;67046;50.088;14.336;2023-03-14T00:04:59;95911.35;;;11.80;69.01
77855;BME280;67046;50.088;14.336;2023-03-14T00:05:33;95907.52;;;11.79;69.09
77855;BME280;67046;50.088;14.336;2023-03-14T00:06:06;95900.21;;;11.77;68.97
77855;BME280;67046;50.088;14.336;2023-03-14T00:06:37;95900.66;;;11.76;69.42
77855;BME280;67046;50.088;14.336;2023-03-14T00:07:11;95895.58;;;11.72;69.51
77855;BME280;67046;50.088;14.336;2023-03-14T00:07:42;95894.54;;;11.70;69.43
77855;BME280;67046;50.088;14.336;2023-03-14T00:08:13;95901.73;;;11.68;69.82
77855;BME280;67046;50.088;14.336;2023-03-14T00:08:46;95905.41;;;11.66;69.85
77855;BME280;67046;50.088;14.336;2023-03-14T00:09:18;95909.87;;;11.65;69.42
77855;BME280;67046;50.088;14.336;2023-03-14T00:09:50;95915.60;;;11.63;69.53
77855;BME280;67046;50.088;14.336;2023-03-14T00:10:22;95919.44;;;11.62;70.25
77855;BME280;67046;50.088;14.336;2023-03-14T00:10:53;95923.44;;;11.58;69.94
77855;BME280;67046;50.088;14.336;2023-03-14T00:11:24;95924.35;;;11.56;69.82
77855;BME280;67046;50.088;14.336;2023-03-14T00:11:56;95926.61;;;11.55;69.81
77855;BME280;67046;50.088;14.336;2023-03-14T00:12:28;95923.90;;;11.54;70.29
77855;BME280;67046;50.088;14.336;2023-03-14T00:12:59;95928.67;;;11.54;69.95
77855;BME280;67046;50.088;14.336;2023-03-14T00:13:30;95926.58;;;11.53;70.10
77855;BME280;67046;50.088;14.336;2023-03-14T00:14:02;95924.84;;;11.53;70.09
77855;BME280;67046;50.088;14.336;2023-03-14T00:14:34;95923.89;;;11.52;70.02
77855;BME280;67046;50.088;14.336;2023-03-14T00:15:06;95927.09;;;11.54;70.15
77855;BME280;67046;50.088;14.336;2023-03-14T00:15:38;95930.20;;;11.54;70.41
77855;BME280;67046;50.088;14.336;2023-03-14T00:16:11;95930.78;;;11.55;70.26
77855;BME280;67046;50.088;14.336;2023-03-14T00:16:46;95935.84;;;11.56;70.41
77855;BME280;67046;50.088;14.336;2023-03-14T00:17:17;95929.39;;;11.56;70.61
77855;BME280;67046;50.088;14.336;2023-03-14T00:17:49;95927.17;;;11.55;70.12
77855;BME280;67046;50.088;14.336;2023-03-14T00:18:20;95929.02;;;11.56;70.33
77855;BME280;67046;50.088;14.336;2023-03-14T00:18:51;95926.75;;;11.56;70.47
77855;BME280;67046;50.088;14.336;2023-03-14T00:19:23;95922.77;;;11.56;70.55
77855;BME280;67046;50.088;14.336;2023-03-14T00:19:54;95921.44;;;11.57;70.27
77855;BME280;67046;50.088;14.336;2023-03-14T00:20:26;95914.98;;;11.57;70.45
77855;BME280;67046;50.088;14.336;2023-03-14T00:20:59;95913.45;;;11.58;70.45
77855;BME280;67046;50.088;14.336;2023-03-14T00:21:31;95905.29;;;11.58;70.52
77855;BME280;67046;50.088;14.336;2023-03-14T00:22:02;95901.43;;;11.58;70.28
77855;BME280;67046;50.088;14.336;2023-03-14T00:22:34;95899.89;;;11.59;70.40
77855;BME280;67046;50.088;14.336;2023-03-14T00:23:06;95891.92;;;11.60;70.43
77855;BME280;67046;50.088;14.336;2023-03-14T00:23:39;95892.92;;;11.61;70.48
77855;BME280;67046;50.088;14.336;2023-03-14T00:24:11;95891.70;;;11.62;70.01
77855;BME280;67046;50.088;14.336;2023-03-14T00:24:42;95890.56;;;11.63;70.35
77855;BME280;67046;50.088;14.336;2023-03-14T00:25:13;95896.27;;;11.65;70.31
77855;BME280;67046;50.088;14.336;2023-03-14T00:25:45;95894.13;;;11.67;69.88
77855;BME280;67046;50.088;14.336;2023-03-14T00:26:18;95894.37;;;11.69;70.22
77855;BME280;67046;50.088;14.336;2023-03-14T00:26:49;95894.63;;;11.71;70.26
77855;BME280;67046;50.088;14.336;2023-03-14T00:27:21;95896.59;;;11.72;70.19
77855;BME280;67046;50.088;14.336;2023-03-14T00:27:52;95896.29;;;11.74;70.04
77855;BME280;67046;50.088;14.336;2023-03-14T00:28:24;95897.34;;;11.75;70.21
77855;BME280;67046;50.088;14.336;2023-03-14T00:28:55;95898.94;;;11.75;69.93
77855;BME280;67046;50.088;14.336;2023-03-14T00:29:27;95893.56;;;11.76;70.20
77855;BME280;67046;50.088;14.336;2023-03-14T00:29:58;95894.35;;;11.77;69.89
77855;BME280;67046;50.088;14.336;2023-03-14T00:30:30;95891.27;;;11.78;69.98
77855;BME280;67046;50.088;14.336;2023-03-14T00:31:06;95889.41;;;11.79;70.05
77855;BME280;67046;50.088;14.336;2023-03-14T00:31:38;95884.47;;;11.80;69.86
77855;BME280;67046;50.088;14.336;2023-03-14T00:32:10;95883.47;;;11.79;69.83
77855;BME280;67046;50.088;14.336;2023-03-14T00:32:41;95878.88;;;11.77;70.08
77855;BME280;67046;50.088;14.336;2023-03-14T00:33:13;95875.81;;;11.77;70.00
77855;BME280;67046;50.088;14.336;2023-03-14T00:33:45;95877.92;;;11.77;69.73
77855;BME280;67046;50.088;14.336;2023-03-14T00:34:16;95874.48;;;11.77;69.79
77855;BME280;67046;50.088;14.336;2023-03-14T00:34:48;95877.04;;;11.78;69.98
77855;BME280;67046;50.088;14.336;2023-03-14T00:35:19;95874.60;;;11.79;70.01
77855;BME280;67046;50.088;14.336;2023-03-14T00:35:58;95872.39;;;11.77;70.00
77855;BME280;67046;50.088;14.336;2023-03-14T00:36:30;95874.78;;;11.79;70.03
77855;BME280;67046;50.088;14.336;2023-03-14T00:37:01;95868.64;;;11.79;70.03
77855;BME280;67046;50.088;14.336;2023-03-14T00:37:32;95865.32;;;11.79;69.94
77855;BME280;67046;50.088;14.336;2023-03-14T00:38:04;95861.93;;;11.79;69.94
77855;BME280;67046;50.088;14.336;2023-03-14T00:38:36;95862.14;;;11.79;70.12
77855;BME280;67046;50.088;14.336;2023-03-14T00:39:07;95854.20;;;11.79;69.81
77855;BME280;67046;50.088;14.336;2023-03-14T00:39:39;95849.06;;;11.79;70.07
77855;BME280;67046;50.088;14.336;2023-03-14T00:40:11;95839.23;;;11.79;69.87
77855;BME280;67046;50.088;14.336;2023-03-14T00:40:42;95826.52;;;11.79;70.00
77855;BME280;67046;50.088;14.336;2023-03-14T00:41:16;95810.98;;;11.80;69.60
77855;BME280;67046;50.088;14.336;2023-03-14T00:41:48;95795.95;;;11.80;69.89
77855;BME280;67046;50.088;14.336;2023-03-14T00:42:19;95803.99;;;11.80;69.99
77855;BME280;67046;50.088;14.336;2023-03-14T00:42:50;95780.98;;;11.80;69.94
77855;BME280;67046;50.088;14.336;2023-03-14T00:43:22;95773.77;;;11.81;69.92
77855;BME280;67046;50.088;14.336;2023-03-14T00:43:54;95738.73;;;11.80;69.66
77855;BME280;67046;50.088;14.336;2023-03-14T00:44:25;95721.69;;;11.80;70.57
77855;BME280;67046;50.088;14.336;2023-03-14T00:44:56;95717.64;;;11.78;70.41
77855;BME280;67046;50.088;14.336;2023-03-14T00:45:27;95728.94;;;11.76;70.73
77855;BME280;67046;50.088;14.336;2023-03-14T00:45:58;95755.23;;;11.75;70.71
77855;BME280;67046;50.088;14.336;2023-03-14T00:46:30;95760.96;;;11.73;70.45
77855;BME280;67046;50.088;14.336;2023-03-14T00:47:01;95758.02;;;11.71;71.11
77855;BME280;67046;50.088;14.336;2023-03-14T00:47:32;95755.77;;;11.69;70.92
77855;BME280;67046;50.088;14.336;2023-03-14T00:48:03;95746.37;;;11.66;71.38
77855;BME280;67046;50.088;14.336;2023-03-14T00:48:35;95743.23;;;11.64;71.50
77855;BME280;67046;50.088;14.336;2023-03-14T00:49:06;95733.83;;;11.62;71.52
77855;BME280;67046;50.088;14.336;2023-03-14T00:49:37;95743.77;;;11.60;71.40
77855;BME280;67046;50.088;14.336;2023-03-14T00:50:09;95741.89;;;11.58;71.81
77855;BME280;67046;50.088;14.336;2023-03-14T00:50:40;95725.17;;;11.56;71.63
77855;BME280;67046;50.088;14.336;2023-03-14T00:51:12;95709.23;;;11.55;71.96
77855;BME280;67046;50.088;14.336;2023-03-14T00:51:45;95684.55;;;11.53;72.05
77855;BME280;67046;50.088;14.336;2023-03-14T00:52:17;95676.90;;;11.51;71.77
77855;BME280;67046;50.088;14.336;2023-03-14T00:52:48;95694.86;;;11.50;72.20
77855;BME280;67046;50.088;14.336;2023-03-14T00:53:19;95679.69;;;11.48;71.95
77855;BME280;67046;50.088;14.336;2023-03-14T00:53:51;95671.89;;;11.47;71.53
77855;BME280;67046;50.088;14.336;2023-03-14T00:54:22;95679.20;;;11.46;71.83
77855;BME280;67046;50.088;14.336;2023-03-14T00:54:54;95688.40;;;11.46;71.89
77855;BME280;67046;50.088;14.336;2023-03-14T00:55:25;95694.13;;;11.44;72.05
77855;BME280;67046;50.088;14.336;2023-03-14T00:55:56;95690.23;;;11.43;72.01
77855;BME280;67046;50.088;14.336;2023-03-14T00:56:28;95689.55;;;11.43;72.06
77855;BME280;67046;50.088;14.336;2023-03-14T00:56:59;95693.30;;;11.43;71.91
77855;BME280;67046;50.088;14.336;2023-03-14T00:57:30;95708.28;;;11.43;71.43
77855;BME280;67046;50.088;14.336;2023-03-14T00:58:01;95724.84;;;11.44;71.57
77855;BME280;67046;50.088;14.336;2023-03-14T00:58:33;95718.95;;;11.45;71.99
77855;BME280;67046;50.088;14.336;2023-03-14T00:59:04;95715.43;;;11.47;71.90
77855;BME280;67046;50.088;14.336;2023-03-14T00:59:35;95727.23;;;11.48;71.84
77855;BME280;67046;50.088;14.336;2023-03-14T01:00:07;95723.54;;;11.49;71.72
77855;BME280;67046;50.088;14.336;2023-03-14T01:00:41;95728.43;;;11.51;71.69
77855;BME280;67046;50.088;14.336;2023-03-14T01:01:17;95725.02;;;11.53;72.12
77855;BME280;67046;50.088;14.336;2023-03-14T01:01:49;95736.27;;;11.55;71.64
77855;BME280;67046;50.088;14.336;2023-03-14T01:02:21;95738.00;;;11.56;71.79
77855;BME280;67046;50.088;14.336;2023-03-14T01:02:52;95739.30;;;11.57;71.70
77855;BME280;67046;50.088;14.336;2023-03-14T01:03:23;95741.61;;;11.58;71.81
77855;BME280;67046;50.088;14.336;2023-03-14T01:03:55;95733.23;;;11.59;71.82
77855;BME280;67046;50.088;14.336;2023-03-14T01:04:27;95731.62;;;11.62;71.37
77855;BME280;67046;50.088;14.336;2023-03-14T01:04:58;95728.52;;;11.63;71.50
77855;BME280;67046;50.088;14.336;2023-03-14T01:05:29;95730.61;;;11.65;72.07
77855;BME280;67046;50.088;14.336;2023-03-14T01:06:19;95719.85;;;11.66;71.56
77855;BME280;67046;50.088;14.336;2023-03-14T01:06:51;95721.67;;;11.69;72.06
77855;BME280;67046;50.088;14.336;2023-03-14T01:07:22;95718.20;;;11.69;71.85
77855;BME280;67046;50.088;14.336;2023-03-14T01:07:54;95714.53;;;11.70;71.80
77855;BME280;67046;50.088;14.336;2023-03-14T01:08:25;95709.32;;;11.72;71.45
77855;BME280;67046;50.088;14.336;2023-03-14T01:08:57;95705.86;;;11.73;71.86
77855;BME280;67046;50.088;14.336;2023-03-14T01:09:29;95701.23;;;11.75;71.85
77855;BME280;67046;50.088;14.336;2023-03-14T01:10:00;95699.00;;;11.75;72.07
77855;BME280;67046;50.088;14.336;2023-03-14T01:10:31;95689.05;;;11.76;71.55
77855;BME280;67046;50.088;14.336;2023-03-14T01:11:07;95677.35;;;11.76;71.72
77855;BME280;67046;50.088;14.336;2023-03-14T01:11:39;95664.96;;;11.76;71.60
77855;BME280;67046;50.088;14.336;2023-03-14T01:12:10;95660.20;;;11.76;71.40
77855;BME280;67046;50.088;14.336;2023-03-14T01:12:41;95658.90;;;11.77;71.53
77855;BME280;67046;50.088;14.336;2023-03-14T01:13:13;95653.16;;;11.79;71.97
77855;BME280;67046;50.088;14.336;2023-03-14T01:13:44;95656.04;;;11.80;71.39
77855;BME280;67046;50.088;14.336;2023-03-14T01:14:15;95656.15;;;11.82;71.71
77855;BME280;67046;50.088;14.336;2023-03-14T01:14:47;95653.02;;;11.83;71.39
77855;BME280;67046;50.088;14.336;2023-03-14T01:15:18;95647.43;;;11.85;71.38
77855;BME280;67046;50.088;14.336;2023-03-14T01:15:50;95647.84;;;11.87;71.69
77855;BME280;67046;50.088;14.336;2023-03-14T01:16:23;95648.44;;;11.88;71.75
77855;BME280;67046;50.088;14.336;2023-03-14T01:16:55;95652.10;;;11.90;71.26
77855;BME280;67046;50.088;14.336;2023-03-14T01:17:31;95654.30;;;11.92;71.25
77855;BME280;67046;50.088;14.336;2023-03-14T01:18:03;95657.48;;;11.93;71.35
77855;BME280;67046;50.088;14.336;2023-03-14T01:18:35;95660.25;;;11.94;71.45
77855;BME280;67046;50.088;14.336;2023-03-14T01:19:06;95666.84;;;11.95;72.00
77855;BME280;67046;50.088;14.336;2023-03-14T01:19:38;95672.65;;;11.96;71.63
77855;BME280;67046;50.088;14.336;2023-03-14T01:20:12;95678.95;;;11.97;71.55
77855;BME280;67046;50.088;14.336;2023-03-14T01:20:44;95688.38;;;11.96;71.37
77855;BME280;67046;50.088;14.336;2023-03-14T01:21:24;95694.35;;;11.95;71.40
77855;BME280;67046;50.088;14.336;2023-03-14T01:21:56;95699.38;;;11.94;71.83
77855;BME280;67046;50.088;14.336;2023-03-14T01:22:28;95693.10;;;11.93;71.81
77855;BME280;67046;50.088;14.336;2023-03-14T01:22:59;95690.08;;;11.93;71.62
77855;BME280;67046;50.088;14.336;2023-03-14T01:23:31;95685.33;;;11.93;71.45
77855;BME280;67046;50.088;14.336;2023-03-14T01:24:03;95678.93;;;11.92;71.41
77855;BME280;67046;50.088;14.336;2023-03-14T01:24:36;95674.54;;;11.92;71.54
77855;BME280;67046;50.088;14.336;2023-03-14T01:25:14;95679.04;;;11.92;71.32
77855;BME280;67046;50.088;14.336;2023-03-14T01:25:45;95681.26;;;11.92;71.60
77855;BME280;67046;50.088;14.336;2023-03-14T01:26:19;95691.33;;;11.91;71.88
77855;BME280;67046;50.088;14.336;2023-03-14T01:26:51;95698.01;;;11.90;71.18
77855;BME280;67046;50.088;14.336;2023-03-14T01:27:22;95702.72;;;11.91;71.67
77855;BME280;67046;50.088;14.336;2023-03-14T01:27:53;95701.29;;;11.91;71.85
77855;BME280;67046;50.088;14.336;2023-03-14T01:28:25;95692.77;;;11.90;71.34
77855;BME280;67046;50.088;14.336;2023-03-14T01:28:56;95688.38;;;11.90;71.34
77855;BME280;67046;50.088;14.336;2023-03-14T01:29:28;95685.85;;;11.89;71.31
77855;BME280;67046;50.088;14.336;2023-03-14T01:29:59;95690.20;;;11.90;71.46
77855;BME280;67046;50.088;14.336;2023-03-14T01:30:30;95695.93;;;11.91;71.47
77855;BME280;67046;50.088;14.336;2023-03-14T01:31:03;95685.81;;;11.91;71.43
77855;BME280;67046;50.088;14.336;2023-03-14T01:31:35;95680.26;;;11.92;71.20
77855;BME280;67046;50.088;14.336;2023-03-14T01:32:06;95671.79;;;11.92;71.67
77855;BME280;67046;50.088;14.336;2023-03-14T01:32:37;95673.90;;;11.92;71.41
77855;BME280;67046;50.088;14.336;2023-03-14T01:33:09;95677.29;;;11.92;71.19
77855;BME280;67046;50.088;14.336;2023-03-14T01:33:40;95687.08;;;11.92;71.32
77855;BME280;67046;50.088;14.336;2023-03-14T01:34:12;95694.64;;;11.93;71.44
77855;BME280;67046;50.088;14.336;2023-03-14T01:34:43;95696.32;;;11.94;71.16
77855;BME280;67046;50.088;14.336;2023-03-14T01:35:14;95694.61;;;11.94;70.92
77855;BME280;67046;50.088;14.336;2023-03-14T01:35:45;95687.62;;;11.95;71.58
77855;BME280;67046;50.088;14.336;2023-03-14T01:36:20;95681.48;;;11.95;71.36
77855;BME280;67046;50.088;14.336;2023-03-14T01:36:51;95674.92;;;11.94;70.99
77855;BME280;67046;50.088;14.336;2023-03-14T01:37:22;95672.21;;;11.91;71.13
77855;BME280;67046;50.088;14.336;2023-03-14T01:37:54;95670.45;;;11.89;71.35
77855;BME280;67046;50.088;14.336;2023-03-14T01:38:25;95659.81;;;11.86;71.45
77855;BME280;67046;50.088;14.336;2023-03-14T01:38:56;95655.85;;;11.85;71.28
77855;BME280;67046;50.088;14.336;2023-03-14T01:39:27;95654.30;;;11.84;71.36
77855;BME280;67046;50.088;14.336;2023-03-14T01:39:59;95650.17;;;11.83;71.27
77855;BME280;67046;50.088;14.336;2023-03-14T01:40:30;95651.08;;;11.82;71.22
77855;BME280;67046;50.088;14.336;2023-03-14T01:41:02;95653.08;;;11.81;71.05
77855;BME280;67046;50.088;14.336;2023-03-14T01:41:33;95652.17;;;11.80;71.42
77855;BME280;67046;50.088;14.336;2023-03-14T01:42:05;95654.38;;;11.78;71.08
77855;BME280;67046;50.088;14.336;2023-03-14T01:42:36;95654.81;;;11.78;71.49
77855;BME280;67046;50.088;14.336;2023-03-14T01:43:19;95659.47;;;11.78;71.21
77855;BME280;67046;50.088;14.336;2023-03-14T01:43:51;95658.97;;;11.76;71.21
77855;BME280;67046;50.088;14.336;2023-03-14T01:44:22;95656.89;;;11.74;71.07
77855;BME280;67046;50.088;14.336;2023-03-14T01:44:56;95662.58;;;11.73;71.55
77855;BME280;67046;50.088;14.336;2023-03-14T01:47:10;95658.42;;;11.65;70.76
77855;BME280;67046;50.088;14.336;2023-03-14T01:47:41;95654.79;;;11.64;71.34
77855;BME280;67046;50.088;14.336;2023-03-14T01:48:13;95645.30;;;11.62;70.70
77855;BME280;67046;50.088;14.336;2023-03-14T01:49:35;95628.59;;;11.58;71.17
77855;BME280;67046;50.088;14.336;2023-03-14T01:50:10;95630.21;;;11.56;71.19
77855;BME280;67046;50.088;14.336;2023-03-14T01:50:42;95630.41;;;11.53;70.80
77855;BME280;67046;50.088;14.336;2023-03-14T01:51:21;95640.73;;;11.53;70.99
77855;BME280;67046;50.088;14.336;2023-03-14T01:52:44;95643.20;;;11.51;71.11
77855;BME280;67046;50.088;14.336;2023-03-14T01:53:17;95653.02;;;11.49;70.98
77855;BME280;67046;50.088;14.336;2023-03-14T01:53:55;95651.00;;;11.49;71.06
77855;BME280;67046;50.088;14.336;2023-03-14T01:54:36;95656.58;;;11.48;70.79
77855;BME280;67046;50.088;14.336;2023-03-14T01:55:12;95655.80;;;11.48;70.51
77855;BME280;67046;50.088;14.336;2023-03-14T01:55:44;95653.88;;;11.47;70.93
77855;BME280;67046;50.088;14.336;2023-03-14T01:56:17;95651.30;;;11.47;70.93
77855;BME280;67046;50.088;14.336;2023-03-14T01:56:53;95648.55;;;11.48;70.65
77855;BME280;67046;50.088;14.336;2023-03-14T01:57:29;95651.02;;;11.48;71.08
77855;BME280;67046;50.088;14.336;2023-03-14T01:58:03;95644.45;;;11.49;70.93
77855;BME280;67046;50.088;14.336;2023-03-14T01:58:35;95636.73;;;11.48;70.78
77855;BME280;67046;50.088;14.336;2023-03-14T01:59:08;95638.41;;;11.49;70.41
77855;BME280;67046;50.088;14.336;2023-03-14T01:59:46;95634.13;;;11.49;70.43
77855;BME280;67046;50.088;14.336;2023-03-14T02:00:20;95634.60;;;11.49;70.49
77855;BME280;67046;50.088;14.336;2023-03-14T02:00:53;95646.77;;;11.50;70.16
77855;BME280;67046;50.088;14.336;2023-03-14T02:01:24;95649.16;;;11.49;70.43
77855;BME280;67046;50.088;14.336;2023-03-14T02:01:57;95648.64;;;11.48;70.50
77855;BME280;67046;50.088;14.336;2023-03-14T02:02:30;95649.38;;;11.48;70.81
77855;BME280;67046;50.088;14.336;2023-03-14T02:03:17;95651.17;;;11.49;70.73
77855;BME280;67046;50.088;14.336;2023-03-14T02:03:56;95645.52;;;11.48;70.35
77855;BME280;67046;50.088;14.336;2023-03-14T02:04:32;95639.98;;;11.47;70.47
77855;BME280;67046;50.088;14.336;2023-03-14T02:05:06;95641.81;;;11.48;70.56
77855;BME280;67046;50.088;14.336;2023-03-14T02:05:39;95638.37;;;11.48;70.68
77855;BME280;67046;50.088;14.336;2023-03-14T02:06:12;95641.16;;;11.49;70.18
77855;BME280;67046;50.088;14.336;2023-03-14T02:07:59;95643.04;;;11.48;70.48
77855;BME280;67046;50.088;14.336;2023-03-14T02:08:31;95647.08;;;11.47;70.64
77855;BME280;67046;50.088;14.336;2023-03-14T02:09:02;95646.27;;;11.47;70.54
77855;BME280;67046;50.088;14.336;2023-03-14T02:09:36;95636.95;;;11.49;70.58
77855;BME280;67046;50.088;14.336;2023-03-14T02:10:09;95637.54;;;11.51;70.68
77855;BME280;67046;50.088;14.336;2023-03-14T02:10:44;95636.57;;;11.51;70.51
77855;BME280;67046;50.088;14.336;2023-03-14T02:11:17;95635.93;;;11.52;70.36
77855;BME280;67046;50.088;14.336;2023-03-14T02:11:50;95645.86;;;11.53;70.14
77855;BME280;67046;50.088;14.336;2023-03-14T02:12:21;95642.82;;;11.54;70.10
77855;BME280;67046;50.088;14.336;2023-03-14T02:12:55;95641.94;;;11.56;70.32
77855;BME280;67046;50.088;14.336;2023-03-14T02:13:27;95641.25;;;11.57;70.13
77855;BME280;67046;50.088;14.336;2023-03-14T02:13:59;95641.61;;;11.58;70.20
77855;BME280;67046;50.088;14.336;2023-03-14T02:14:36;95648.73;;;11.58;70.21
77855;BME280;67046;50.088;14.336;2023-03-14T02:15:08;95654.96;;;11.60;70.10
77855;BME280;67046;50.088;14.336;2023-03-14T02:15:40;95652.61;;;11.61;69.95
77855;BME280;67046;50.088;14.336;2023-03-14T02:16:11;95655.92;;;11.63;70.16
77855;BME280;67046;50.088;14.336;2023-03-14T02:16:42;95651.60;;;11.65;70.14
77855;BME280;67046;50.088;14.336;2023-03-14T02:17:16;95659.26;;;11.67;70.01
77855;BME280;67046;50.088;14.336;2023-03-14T02:17:48;95661.08;;;11.69;69.74
77855;BME280;67046;50.088;14.336;2023-03-14T02:18:20;95660.67;;;11.70;69.42
77855;BME280;67046;50.088;14.336;2023-03-14T02:18:52;95648.03;;;11.71;69.65
77855;BME280;67046;50.088;14.336;2023-03-14T02:21:31;95646.98;;;11.74;69.96
77855;BME280;67046;50.088;14.336;2023-03-14T02:22:10;95642.59;;;11.75;69.61
77855;BME280;67046;50.088;14.336;2023-03-14T02:22:44;95646.98;;;11.75;69.81
77855;BME280;67046;50.088;14.336;2023-03-14T02:23:23;95653.35;;;11.77;69.76
77855;BME280;67046;50.088;14.336;2023-03-14T02:24:12;95655.92;;;11.78;69.50
77855;BME280;67046;50.088;14.336;2023-03-14T02:27:20;95672.16;;;11.82;69.22
77855;BME280;67046;50.088;14.336;2023-03-14T02:27:52;95669.58;;;11.81;69.12
77855;BME280;67046;50.088;14.336;2023-03-14T02:28:23;95668.60;;;11.83;69.48
77855;BME280;67046;50.088;14.336;2023-03-14T02:28:54;95667.52;;;11.84;69.29
77855;BME280;67046;50.088;14.336;2023-03-14T02:29:27;95668.34;;;11.85;69.12
77855;BME280;67046;50.088;14.336;2023-03-14T02:30:12;95669.45;;;11.86;68.73
77855;BME280;67046;50.088;14.336;2023-03-14T02:30:44;95668.70;;;11.87;69.23
77855;BME280;67046;50.088;14.336;2023-03-14T02:31:17;95671.13;;;11.87;69.01
77855;BME280;67046;50.088;14.336;2023-03-14T02:31:48;95672.22;;;11.88;69.39
77855;BME280;67046;50.088;14.336;2023-03-14T02:32:21;95674.96;;;11.88;68.82
77855;BME280;67046;50.088;14.336;2023-03-14T02:33:06;95679.19;;;11.89;68.98
77855;BME280;67046;50.088;14.336;2023-03-14T02:33:38;95681.84;;;11.89;69.01
77855;BME280;67046;50.088;14.336;2023-03-14T02:34:10;95685.17;;;11.89;68.93
77855;BME280;67046;50.088;14.336;2023-03-14T02:34:43;95686.84;;;11.88;68.90
77855;BME280;67046;50.088;14.336;2023-03-14T02:35:21;95683.59;;;11.88;68.87
77855;BME280;67046;50.088;14.336;2023-03-14T02:36:00;95687.13;;;11.89;68.83
77855;BME280;67046;50.088;14.336;2023-03-14T02:36:33;95684.83;;;11.90;69.00
77855;BME280;67046;50.088;14.336;2023-03-14T02:37:05;95687.25;;;11.91;68.62
77855;BME280;67046;50.088;14.336;2023-03-14T02:37:42;95687.19;;;11.93;68.81
77855;BME280;67046;50.088;14.336;2023-03-14T02:39:41;95686.88;;;11.91;69.35
77855;BME280;67046;50.088;14.336;2023-03-14T02:40:15;95685.02;;;11.92;69.03
77855;BME280;67046;50.088;14.336;2023-03-14T02:40:47;95683.00;;;11.92;69.05
77855;BME280;67046;50.088;14.336;2023-03-14T02:41:19;95678.98;;;11.95;69.52
77855;BME280;67046;50.088;14.336;2023-03-14T02:41:50;95677.73;;;11.96;68.80
77855;BME280;67046;50.088;14.336;2023-03-14T02:42:21;95679.88;;;11.98;69.30
77855;BME280;67046;50.088;14.336;2023-03-14T02:42:53;95678.10;;;11.99;69.26
77855;BME280;67046;50.088;14.336;2023-03-14T02:43:24;95676.77;;;12.01;68.75
77855;BME280;67046;50.088;14.336;2023-03-14T02:43:55;95675.15;;;12.02;68.84
77855;BME280;67046;50.088;14.336;2023-03-14T02:44:27;95675.88;;;12.03;69.15
77855;BME280;67046;50.088;14.336;2023-03-14T02:45:42;95674.56;;;12.06;68.95
77855;BME280;67046;50.088;14.336;2023-03-14T02:46:16;95670.79;;;12.07;69.29
77855;BME280;67046;50.088;14.336;2023-03-14T02:46:49;95667.00;;;12.08;69.31
77855;BME280;67046;50.088;14.336;2023-03-14T02:47:26;95665.77;;;12.09;69.13
77855;BME280;67046;50.088;14.336;2023-03-14T02:48:02;95664.84;;;12.10;68.92
77855;BME280;67046;50.088;14.336;2023-03-14T02:48:41;95661.38;;;12.12;68.99
77855;BME280;67046;50.088;14.336;2023-03-14T02:49:14;95656.52;;;12.13;69.26
77855;BME280;67046;50.088;14.336;2023-03-14T02:49:46;95656.20;;;12.14;69.19
77855;BME280;67046;50.088;14.336;2023-03-14T02:50:21;95653.92;;;12.14;68.89
77855;BME280;67046;50.088;14.336;2023-03-14T02:50:56;95652.94;;;12.15;69.18
77855;BME280;67046;50.088;14.336;2023-03-14T02:51:28;95653.13;;;12.16;69.03
77855;BME280;67046;50.088;14.336;2023-03-14T02:52:00;95653.17;;;12.16;68.86
77855;BME280;67046;50.088;14.336;2023-03-14T02:52:32;95643.41;;;12.18;68.95
77855;BME280;67046;50.088;14.336;2023-03-14T02:53:03;95643.34;;;12.19;68.87
77855;BME280;67046;50.088;14.336;2023-03-14T02:53:36;95639.55;;;12.20;68.61
77855;BME280;67046;50.088;14.336;2023-03-14T02:54:08;95641.32;;;12.21;68.55
77855;BME280;67046;50.088;14.336;2023-03-14T02:54:39;95633.64;;;12.22;68.45
77855;BME280;67046;50.088;14.336;2023-03-14T02:55:11;95627.39;;;12.22;68.86
77855;BME280;67046;50.088;14.336;2023-03-14T02:55:48;95620.29;;;12.23;68.44
77855;BME280;67046;50.088;14.336;2023-03-14T02:56:20;95619.08;;;12.22;68.67
77855;BME280;67046;50.088;14.336;2023-03-14T02:56:51;95620.19;;;12.22;68.62
77855;BME280;67046;50.088;14.336;2023-03-14T02:57:22;95617.59;;;12.22;68.63
77855;BME280;67046;50.088;14.336;2023-03-14T02:57:54;95613.20;;;12.22;68.50
77855;BME280;67046;50.088;14.336;2023-03-14T02:58:26;95615.33;;;12.22;68.59
77855;BME280;67046;50.088;14.336;2023-03-14T02:58:57;95602.63;;;12.21;68.74
77855;BME280;67046;50.088;14.336;2023-03-14T02:59:29;95601.07;;;12.21;68.67
77855;BME280;67046;50.088;14.336;2023-03-14T03:00:01;95601.19;;;12.21;68.71
77855;BME280;67046;50.088;14.336;2023-03-14T03:00:35;95598.01;;;12.21;68.71
77855;BME280;67046;50.088;14.336;2023-03-14T03:01:06;95598.61;;;12.20;68.42
77855;BME280;67046;50.088;14.336;2023-03-14T03:01:38;95594.45;;;12.19;68.74
77855;BME280;67046;50.088;14.336;2023-03-14T03:02:09;95596.19;;;12.19;68.58
77855;BME280;67046;50.088;14.336;2023-03-14T03:02:40;95595.73;;;12.18;68.70